sensor_id;sensor_type;location;lat;lon;timestamp;P1;durP1;ratioP1;P2;durP2;ratioP2
79585;SDS011;69054;50.866;4.636;2023-11-21T00:00:53;61.17;;;22.45;;
79585;SDS011;69054;50.866;4.636;2023-11-21T00:03:18;66.15;;;22.25;;
79585;SDS011;69054;50.866;4.636;2023-11-21T00:05:44;64.78;;;23.15;;
79585;SDS011;69054;50.866;4.636;2023-11-21T00:08:09;67.05;;;21.63;;
79585;SDS011;69054;50.866;4.636;2023-11-21T00:10:35;59.97;;;21.30;;
79585;SDS011;69054;50.866;4.636;2023-11-21T00:13:03;54.10;;;20.63;;
79585;SDS011;69054;50.866;4.636;2023-11-21T00:15:28;58.63;;;20.13;;
79585;SDS011;69054;50.866;4.636;2023-11-21T00:17:54;60.67;;;20.73;;
79585;SDS011;69054;50.866;4.636;2023-11-21T00:20:20;63.33;;;20.63;;
79585;SDS011;69054;50.866;4.636;2023-11-21T00:22:46;63.50;;;21.15;;
79585;SDS011;69054;50.866;4.636;2023-11-21T00:25:12;58.50;;;21.27;;
79585;SDS011;69054;50.866;4.636;2023-11-21T00:27:40;61.70;;;20.48;;
79585;SDS011;69054;50.866;4.636;2023-11-21T00:30:05;58.50;;;20.10;;
79585;SDS011;69054;50.866;4.636;2023-11-21T00:32:32;59.25;;;20.33;;
79585;SDS011;69054;50.866;4.636;2023-11-21T00:34:57;69.78;;;22.35;;
79585;SDS011;69054;50.866;4.636;2023-11-21T00:37:24;56.00;;;19.17;;
79585;SDS011;69054;50.866;4.636;2023-11-21T00:39:50;48.70;;;19.55;;
79585;SDS011;69054;50.866;4.636;2023-11-21T00:42:15;59.70;;;19.30;;
79585;SDS011;69054;50.866;4.636;2023-11-21T00:44:40;51.00;;;18.42;;
79585;SDS011;69054;50.866;4.636;2023-11-21T00:47:06;56.70;;;19.35;;
79585;SDS011;69054;50.866;4.636;2023-11-21T00:49:31;56.42;;;19.60;;
79585;SDS011;69054;50.866;4.636;2023-11-21T00:51:57;67.07;;;20.27;;
79585;SDS011;69054;50.866;4.636;2023-11-21T00:54:23;67.13;;;20.30;;
79585;SDS011;69054;50.866;4.636;2023-11-21T00:56:48;72.88;;;20.77;;
79585;SDS011;69054;50.866;4.636;2023-11-21T00:59:14;69.88;;;19.17;;
79585;SDS011;69054;50.866;4.636;2023-11-21T01:01:39;63.33;;;19.00;;
79585;SDS011;69054;50.866;4.636;2023-11-21T01:04:05;56.58;;;17.42;;
79585;SDS011;69054;50.866;4.636;2023-11-21T01:06:32;59.83;;;18.30;;
79585;SDS011;69054;50.866;4.636;2023-11-21T01:08:57;54.35;;;19.55;;
79585;SDS011;69054;50.866;4.636;2023-11-21T01:11:23;57.92;;;18.65;;
79585;SDS011;69054;50.866;4.636;2023-11-21T01:13:48;61.58;;;17.33;;
79585;SDS011;69054;50.866;4.636;2023-11-21T01:16:14;52.17;;;16.83;;
79585;SDS011;69054;50.866;4.636;2023-11-21T01:18:39;49.42;;;16.48;;
79585;SDS011;69054;50.866;4.636;2023-11-21T01:21:04;58.38;;;18.42;;
79585;SDS011;69054;50.866;4.636;2023-11-21T01:23:30;45.53;;;16.10;;
79585;SDS011;69054;50.866;4.636;2023-11-21T01:25:56;52.10;;;16.85;;
79585;SDS011;69054;50.866;4.636;2023-11-21T01:28:22;53.03;;;18.33;;
79585;SDS011;69054;50.866;4.636;2023-11-21T01:30:48;63.78;;;17.33;;
79585;SDS011;69054;50.866;4.636;2023-11-21T01:33:14;73.43;;;19.83;;
79585;SDS011;69054;50.866;4.636;2023-11-21T01:35:40;76.72;;;19.17;;
79585;SDS011;69054;50.866;4.636;2023-11-21T01:38:06;61.08;;;18.63;;
79585;SDS011;69054;50.866;4.636;2023-11-21T01:40:33;76.60;;;19.65;;
79585;SDS011;69054;50.866;4.636;2023-11-21T01:42:59;73.32;;;19.73;;
79585;SDS011;69054;50.866;4.636;2023-11-21T01:45:24;72.30;;;19.38;;
79585;SDS011;69054;50.866;4.636;2023-11-21T01:47:50;60.72;;;19.10;;
79585;SDS011;69054;50.866;4.636;2023-11-21T01:50:16;63.40;;;17.63;;
79585;SDS011;69054;50.866;4.636;2023-11-21T01:52:43;70.07;;;19.52;;
79585;SDS011;69054;50.866;4.636;2023-11-21T01:55:10;55.25;;;18.17;;
79585;SDS011;69054;50.866;4.636;2023-11-21T01:57:37;67.53;;;19.08;;
79585;SDS011;69054;50.866;4.636;2023-11-21T02:00:03;67.03;;;17.65;;
79585;SDS011;69054;50.866;4.636;2023-11-21T02:02:41;63.67;;;18.75;;
79585;SDS011;69054;50.866;4.636;2023-11-21T02:05:08;63.67;;;18.60;;
79585;SDS011;69054;50.866;4.636;2023-11-21T02:07:35;57.63;;;17.30;;
79585;SDS011;69054;50.866;4.636;2023-11-21T02:10:01;65.20;;;17.00;;
79585;SDS011;69054;50.866;4.636;2023-11-21T02:12:26;60.65;;;17.40;;
79585;SDS011;69054;50.866;4.636;2023-11-21T02:14:52;56.95;;;17.50;;
79585;SDS011;69054;50.866;4.636;2023-11-21T02:17:18;70.75;;;19.75;;
79585;SDS011;69054;50.866;4.636;2023-11-21T02:19:43;65.28;;;17.27;;
79585;SDS011;69054;50.866;4.636;2023-11-21T02:22:09;63.42;;;17.65;;
79585;SDS011;69054;50.866;4.636;2023-11-21T02:24:37;69.25;;;18.00;;
79585;SDS011;69054;50.866;4.636;2023-11-21T02:27:02;63.53;;;16.38;;
79585;SDS011;69054;50.866;4.636;2023-11-21T02:29:27;58.25;;;17.75;;
79585;SDS011;69054;50.866;4.636;2023-11-21T02:31:53;69.47;;;17.63;;
79585;SDS011;69054;50.866;4.636;2023-11-21T02:34:20;78.72;;;20.02;;
79585;SDS011;69054;50.866;4.636;2023-11-21T02:36:46;65.63;;;17.75;;
79585;SDS011;69054;50.866;4.636;2023-11-21T02:39:12;71.60;;;17.63;;
79585;SDS011;69054;50.866;4.636;2023-11-21T02:41:38;65.72;;;17.70;;
79585;SDS011;69054;50.866;4.636;2023-11-21T02:44:04;77.47;;;18.90;;
79585;SDS011;69054;50.866;4.636;2023-11-21T02:46:31;73.88;;;18.02;;
79585;SDS011;69054;50.866;4.636;2023-11-21T02:48:59;81.15;;;18.83;;
79585;SDS011;69054;50.866;4.636;2023-11-21T02:51:25;72.32;;;18.55;;
79585;SDS011;69054;50.866;4.636;2023-11-21T02:53:50;66.25;;;18.88;;
79585;SDS011;69054;50.866;4.636;2023-11-21T02:56:16;76.32;;;18.20;;
79585;SDS011;69054;50.866;4.636;2023-11-21T02:58:42;68.03;;;18.60;;
79585;SDS011;69054;50.866;4.636;2023-11-21T03:01:09;81.65;;;19.45;;
79585;SDS011;69054;50.866;4.636;2023-11-21T03:03:36;75.32;;;17.73;;
79585;SDS011;69054;50.866;4.636;2023-11-21T03:06:04;71.18;;;18.05;;
79585;SDS011;69054;50.866;4.636;2023-11-21T03:08:29;72.03;;;17.15;;
79585;SDS011;69054;50.866;4.636;2023-11-21T03:10:55;73.47;;;18.27;;
79585;SDS011;69054;50.866;4.636;2023-11-21T03:13:21;76.40;;;18.30;;
79585;SDS011;69054;50.866;4.636;2023-11-21T03:15:46;69.88;;;18.40;;
79585;SDS011;69054;50.866;4.636;2023-11-21T03:18:12;72.00;;;19.02;;
79585;SDS011;69054;50.866;4.636;2023-11-21T03:20:38;76.63;;;18.40;;
79585;SDS011;69054;50.866;4.636;2023-11-21T03:23:03;65.40;;;19.85;;
79585;SDS011;69054;50.866;4.636;2023-11-21T03:25:30;64.80;;;17.25;;
79585;SDS011;69054;50.866;4.636;2023-11-21T03:27:56;71.68;;;17.85;;
79585;SDS011;69054;50.866;4.636;2023-11-21T03:30:21;75.75;;;17.05;;
79585;SDS011;69054;50.866;4.636;2023-11-21T03:32:47;62.45;;;16.73;;
79585;SDS011;69054;50.866;4.636;2023-11-21T03:35:12;74.80;;;18.52;;
79585;SDS011;69054;50.866;4.636;2023-11-21T03:37:38;66.72;;;18.45;;
79585;SDS011;69054;50.866;4.636;2023-11-21T03:40:06;56.22;;;16.38;;
79585;SDS011;69054;50.866;4.636;2023-11-21T03:42:34;66.10;;;17.13;;
79585;SDS011;69054;50.866;4.636;2023-11-21T03:44:59;53.58;;;16.50;;
79585;SDS011;69054;50.866;4.636;2023-11-21T03:47:26;68.80;;;16.38;;
79585;SDS011;69054;50.866;4.636;2023-11-21T03:49:52;58.75;;;16.90;;
79585;SDS011;69054;50.866;4.636;2023-11-21T03:52:18;73.90;;;17.55;;
79585;SDS011;69054;50.866;4.636;2023-11-21T03:54:43;66.57;;;16.80;;
79585;SDS011;69054;50.866;4.636;2023-11-21T03:57:09;69.65;;;17.40;;
79585;SDS011;69054;50.866;4.636;2023-11-21T03:59:34;62.13;;;16.30;;
79585;SDS011;69054;50.866;4.636;2023-11-21T04:02:00;61.65;;;16.90;;
79585;SDS011;69054;50.866;4.636;2023-11-21T04:04:25;62.78;;;15.75;;
79585;SDS011;69054;50.866;4.636;2023-11-21T04:06:51;55.17;;;16.75;;
79585;SDS011;69054;50.866;4.636;2023-11-21T04:09:19;61.15;;;15.70;;
79585;SDS011;69054;50.866;4.636;2023-11-21T04:11:44;61.42;;;16.90;;
79585;SDS011;69054;50.866;4.636;2023-11-21T04:14:10;55.33;;;16.15;;
79585;SDS011;69054;50.866;4.636;2023-11-21T04:16:36;56.38;;;16.20;;
79585;SDS011;69054;50.866;4.636;2023-11-21T04:19:01;56.95;;;16.25;;
79585;SDS011;69054;50.866;4.636;2023-11-21T04:21:27;58.40;;;16.27;;
79585;SDS011;69054;50.866;4.636;2023-11-21T04:23:52;57.15;;;15.98;;
79585;SDS011;69054;50.866;4.636;2023-11-21T04:26:17;59.83;;;17.75;;
79585;SDS011;69054;50.866;4.636;2023-11-21T04:28:43;54.75;;;16.98;;
79585;SDS011;69054;50.866;4.636;2023-11-21T04:31:09;52.40;;;15.80;;
79585;SDS011;69054;50.866;4.636;2023-11-21T04:33:35;56.08;;;18.55;;
79585;SDS011;69054;50.866;4.636;2023-11-21T04:36:00;60.90;;;18.25;;
79585;SDS011;69054;50.866;4.636;2023-11-21T04:38:25;58.75;;;17.40;;
79585;SDS011;69054;50.866;4.636;2023-11-21T04:40:51;62.67;;;17.40;;
79585;SDS011;69054;50.866;4.636;2023-11-21T04:43:17;63.70;;;18.70;;
79585;SDS011;69054;50.866;4.636;2023-11-21T04:45:42;47.90;;;16.42;;
79585;SDS011;69054;50.866;4.636;2023-11-21T04:48:07;50.88;;;15.73;;
79585;SDS011;69054;50.866;4.636;2023-11-21T04:50:33;58.20;;;16.92;;
79585;SDS011;69054;50.866;4.636;2023-11-21T04:52:59;53.22;;;15.60;;
79585;SDS011;69054;50.866;4.636;2023-11-21T04:55:25;54.33;;;18.20;;
79585;SDS011;69054;50.866;4.636;2023-11-21T04:57:53;64.22;;;17.60;;
79585;SDS011;69054;50.866;4.636;2023-11-21T05:00:18;65.32;;;17.88;;
79585;SDS011;69054;50.866;4.636;2023-11-21T05:02:44;63.67;;;17.95;;
79585;SDS011;69054;50.866;4.636;2023-11-21T05:05:09;60.97;;;17.50;;
79585;SDS011;69054;50.866;4.636;2023-11-21T05:07:35;56.30;;;15.98;;
79585;SDS011;69054;50.866;4.636;2023-11-21T05:10:01;57.15;;;17.77;;
79585;SDS011;69054;50.866;4.636;2023-11-21T05:12:30;56.13;;;16.73;;
79585;SDS011;69054;50.866;4.636;2023-11-21T05:14:58;60.75;;;18.27;;
79585;SDS011;69054;50.866;4.636;2023-11-21T05:17:24;58.53;;;16.35;;
79585;SDS011;69054;50.866;4.636;2023-11-21T05:19:49;60.88;;;16.50;;
79585;SDS011;69054;50.866;4.636;2023-11-21T05:22:14;58.28;;;16.67;;
79585;SDS011;69054;50.866;4.636;2023-11-21T05:24:40;52.40;;;15.40;;
79585;SDS011;69054;50.866;4.636;2023-11-21T05:27:05;50.92;;;15.32;;
79585;SDS011;69054;50.866;4.636;2023-11-21T05:29:30;46.28;;;14.68;;
79585;SDS011;69054;50.866;4.636;2023-11-21T05:31:56;48.63;;;14.60;;
79585;SDS011;69054;50.866;4.636;2023-11-21T05:34:21;51.13;;;15.30;;
79585;SDS011;69054;50.866;4.636;2023-11-21T05:36:49;43.10;;;15.13;;
79585;SDS011;69054;50.866;4.636;2023-11-21T05:39:15;42.55;;;15.40;;
79585;SDS011;69054;50.866;4.636;2023-11-21T05:41:42;49.70;;;14.73;;
79585;SDS011;69054;50.866;4.636;2023-11-21T05:44:08;45.53;;;13.68;;
79585;SDS011;69054;50.866;4.636;2023-11-21T05:46:34;39.55;;;13.32;;
79585;SDS011;69054;50.866;4.636;2023-11-21T05:48:59;46.88;;;14.10;;
79585;SDS011;69054;50.866;4.636;2023-11-21T05:51:25;46.42;;;14.50;;
79585;SDS011;69054;50.866;4.636;2023-11-21T05:53:50;47.60;;;15.05;;
79585;SDS011;69054;50.866;4.636;2023-11-21T05:56:16;47.15;;;13.80;;
79585;SDS011;69054;50.866;4.636;2023-11-21T05:58:42;41.88;;;13.90;;
79585;SDS011;69054;50.866;4.636;2023-11-21T06:01:07;50.47;;;14.23;;
79585;SDS011;69054;50.866;4.636;2023-11-21T06:03:34;47.20;;;14.23;;
79585;SDS011;69054;50.866;4.636;2023-11-21T06:05:59;42.10;;;15.02;;
79585;SDS011;69054;50.866;4.636;2023-11-21T06:08:25;41.70;;;12.82;;
79585;SDS011;69054;50.866;4.636;2023-11-21T06:10:50;43.97;;;12.88;;
79585;SDS011;69054;50.866;4.636;2023-11-21T06:13:16;43.15;;;15.40;;
79585;SDS011;69054;50.866;4.636;2023-11-21T06:15:41;44.38;;;15.20;;
79585;SDS011;69054;50.866;4.636;2023-11-21T06:18:07;40.65;;;15.00;;
79585;SDS011;69054;50.866;4.636;2023-11-21T06:20:35;50.58;;;16.25;;
79585;SDS011;69054;50.866;4.636;2023-11-21T06:23:02;55.13;;;17.42;;
79585;SDS011;69054;50.866;4.636;2023-11-21T06:25:28;91.47;;;28.17;;
79585;SDS011;69054;50.866;4.636;2023-11-21T06:27:54;65.45;;;21.13;;
79585;SDS011;69054;50.866;4.636;2023-11-21T06:30:20;61.20;;;20.00;;
79585;SDS011;69054;50.866;4.636;2023-11-21T06:32:46;69.63;;;22.70;;
79585;SDS011;69054;50.866;4.636;2023-11-21T06:35:12;52.35;;;17.65;;
79585;SDS011;69054;50.866;4.636;2023-11-21T06:37:38;71.28;;;25.33;;
79585;SDS011;69054;50.866;4.636;2023-11-21T06:40:03;60.10;;;20.30;;
79585;SDS011;69054;50.866;4.636;2023-11-21T06:42:29;78.03;;;28.05;;
79585;SDS011;69054;50.866;4.636;2023-11-21T06:44:55;59.97;;;20.88;;
79585;SDS011;69054;50.866;4.636;2023-11-21T06:47:24;67.47;;;22.58;;
79585;SDS011;69054;50.866;4.636;2023-11-21T06:49:54;59.42;;;22.75;;
79585;SDS011;69054;50.866;4.636;2023-11-21T06:52:20;69.38;;;22.83;;
79585;SDS011;69054;50.866;4.636;2023-11-21T06:54:47;56.42;;;20.63;;
79585;SDS011;69054;50.866;4.636;2023-11-21T06:57:16;62.33;;;20.05;;
79585;SDS011;69054;50.866;4.636;2023-11-21T06:59:42;58.35;;;20.13;;
79585;SDS011;69054;50.866;4.636;2023-11-21T07:02:07;57.78;;;20.48;;
79585;SDS011;69054;50.866;4.636;2023-11-21T07:04:34;54.38;;;19.58;;
79585;SDS011;69054;50.866;4.636;2023-11-21T07:07:01;192.70;;;96.75;;
79585;SDS011;69054;50.866;4.636;2023-11-21T07:09:27;82.25;;;35.83;;
79585;SDS011;69054;50.866;4.636;2023-11-21T07:11:52;82.32;;;33.72;;
79585;SDS011;69054;50.866;4.636;2023-11-21T07:14:18;83.20;;;27.55;;
79585;SDS011;69054;50.866;4.636;2023-11-21T07:16:45;75.63;;;26.05;;
79585;SDS011;69054;50.866;4.636;2023-11-21T07:19:11;83.78;;;27.02;;
79585;SDS011;69054;50.866;4.636;2023-11-21T07:21:37;71.38;;;21.73;;
79585;SDS011;69054;50.866;4.636;2023-11-21T07:24:04;57.22;;;18.63;;
79585;SDS011;69054;50.866;4.636;2023-11-21T07:26:34;78.93;;;34.00;;
79585;SDS011;69054;50.866;4.636;2023-11-21T07:29:00;95.05;;;36.67;;
79585;SDS011;69054;50.866;4.636;2023-11-21T07:31:27;81.32;;;30.20;;
79585;SDS011;69054;50.866;4.636;2023-11-21T07:33:54;74.20;;;24.42;;
79585;SDS011;69054;50.866;4.636;2023-11-21T07:36:19;67.05;;;23.65;;
79585;SDS011;69054;50.866;4.636;2023-11-21T07:38:47;71.10;;;34.15;;
79585;SDS011;69054;50.866;4.636;2023-11-21T07:41:13;325.85;;;56.38;;
79585;SDS011;69054;50.866;4.636;2023-11-21T07:43:42;110.47;;;29.73;;
79585;SDS011;69054;50.866;4.636;2023-11-21T07:46:08;84.72;;;24.30;;
79585;SDS011;69054;50.866;4.636;2023-11-21T07:48:34;63.67;;;22.88;;
79585;SDS011;69054;50.866;4.636;2023-11-21T07:51:00;66.78;;;20.77;;
79585;SDS011;69054;50.866;4.636;2023-11-21T07:53:28;63.50;;;20.40;;
79585;SDS011;69054;50.866;4.636;2023-11-21T07:55:55;68.43;;;23.05;;
79585;SDS011;69054;50.866;4.636;2023-11-21T07:58:21;55.58;;;20.08;;
79585;SDS011;69054;50.866;4.636;2023-11-21T08:00:46;63.17;;;22.27;;
79585;SDS011;69054;50.866;4.636;2023-11-21T08:03:14;56.00;;;22.67;;
79585;SDS011;69054;50.866;4.636;2023-11-21T08:05:40;79.00;;;25.92;;
79585;SDS011;69054;50.866;4.636;2023-11-21T08:08:06;85.20;;;25.77;;
79585;SDS011;69054;50.866;4.636;2023-11-21T08:10:32;75.30;;;22.48;;
79585;SDS011;69054;50.866;4.636;2023-11-21T08:12:58;115.03;;;30.70;;
79585;SDS011;69054;50.866;4.636;2023-11-21T08:15:23;108.05;;;29.88;;
79585;SDS011;69054;50.866;4.636;2023-11-21T08:17:48;92.70;;;27.50;;
79585;SDS011;69054;50.866;4.636;2023-11-21T08:20:14;80.28;;;26.17;;
79585;SDS011;69054;50.866;4.636;2023-11-21T08:22:43;143.38;;;32.80;;
79585;SDS011;69054;50.866;4.636;2023-11-21T08:25:09;62.35;;;22.35;;
79585;SDS011;69054;50.866;4.636;2023-11-21T08:27:35;57.75;;;22.60;;
79585;SDS011;69054;50.866;4.636;2023-11-21T08:30:00;143.18;;;31.58;;
79585;SDS011;69054;50.866;4.636;2023-11-21T08:32:27;58.78;;;23.20;;
79585;SDS011;69054;50.866;4.636;2023-11-21T08:34:53;77.22;;;23.75;;
79585;SDS011;69054;50.866;4.636;2023-11-21T08:37:19;72.13;;;21.50;;
79585;SDS011;69054;50.866;4.636;2023-11-21T08:39:45;131.30;;;31.17;;
79585;SDS011;69054;50.866;4.636;2023-11-21T08:42:13;53.33;;;20.92;;
79585;SDS011;69054;50.866;4.636;2023-11-21T08:44:38;49.10;;;17.98;;
79585;SDS011;69054;50.866;4.636;2023-11-21T08:47:05;58.13;;;20.48;;
79585;SDS011;69054;50.866;4.636;2023-11-21T08:49:30;47.20;;;18.42;;
79585;SDS011;69054;50.866;4.636;2023-11-21T08:51:55;51.00;;;20.15;;
79585;SDS011;69054;50.866;4.636;2023-11-21T08:54:22;57.33;;;20.90;;
79585;SDS011;69054;50.866;4.636;2023-11-21T08:56:48;59.92;;;20.52;;
79585;SDS011;69054;50.866;4.636;2023-11-21T08:59:15;50.50;;;20.05;;
79585;SDS011;69054;50.866;4.636;2023-11-21T09:01:40;55.22;;;20.90;;
79585;SDS011;69054;50.866;4.636;2023-11-21T09:04:05;51.28;;;19.20;;
79585;SDS011;69054;50.866;4.636;2023-11-21T09:06:31;45.92;;;19.92;;
79585;SDS011;69054;50.866;4.636;2023-11-21T09:08:56;51.58;;;19.60;;
79585;SDS011;69054;50.866;4.636;2023-11-21T09:11:23;64.43;;;20.08;;
79585;SDS011;69054;50.866;4.636;2023-11-21T09:13:50;60.30;;;20.85;;
79585;SDS011;69054;50.866;4.636;2023-11-21T09:16:16;66.55;;;19.92;;
79585;SDS011;69054;50.866;4.636;2023-11-21T09:18:41;56.38;;;19.05;;
79585;SDS011;69054;50.866;4.636;2023-11-21T09:21:07;73.72;;;24.40;;
79585;SDS011;69054;50.866;4.636;2023-11-21T09:23:33;61.15;;;21.63;;
79585;SDS011;69054;50.866;4.636;2023-11-21T09:25:59;94.88;;;25.63;;
79585;SDS011;69054;50.866;4.636;2023-11-21T09:28:26;78.47;;;23.52;;
79585;SDS011;69054;50.866;4.636;2023-11-21T09:30:52;138.93;;;32.55;;
79585;SDS011;69054;50.866;4.636;2023-11-21T09:33:20;60.38;;;19.10;;
79585;SDS011;69054;50.866;4.636;2023-11-21T09:35:47;122.75;;;26.65;;
79585;SDS011;69054;50.866;4.636;2023-11-21T09:38:13;50.70;;;19.90;;
79585;SDS011;69054;50.866;4.636;2023-11-21T09:40:39;53.80;;;20.25;;
79585;SDS011;69054;50.866;4.636;2023-11-21T09:43:05;78.07;;;24.42;;
79585;SDS011;69054;50.866;4.636;2023-11-21T09:45:36;52.20;;;19.00;;
79585;SDS011;69054;50.866;4.636;2023-11-21T09:48:03;74.80;;;21.55;;
79585;SDS011;69054;50.866;4.636;2023-11-21T09:50:31;111.15;;;24.63;;
79585;SDS011;69054;50.866;4.636;2023-11-21T09:58:16;170.77;;;30.55;;
79585;SDS011;69054;50.866;4.636;2023-11-21T10:00:46;136.15;;;26.73;;
79585;SDS011;69054;50.866;4.636;2023-11-21T10:03:12;63.65;;;18.65;;
79585;SDS011;69054;50.866;4.636;2023-11-21T10:05:39;46.08;;;17.38;;
79585;SDS011;69054;50.866;4.636;2023-11-21T10:08:10;54.03;;;17.63;;
79585;SDS011;69054;50.866;4.636;2023-11-21T10:10:36;58.80;;;17.08;;
79585;SDS011;69054;50.866;4.636;2023-11-21T10:13:04;34.80;;;13.27;;
79585;SDS011;69054;50.866;4.636;2023-11-21T10:15:33;31.70;;;13.75;;
79585;SDS011;69054;50.866;4.636;2023-11-21T10:18:00;42.13;;;13.85;;
79585;SDS011;69054;50.866;4.636;2023-11-21T10:20:28;42.28;;;13.80;;
79585;SDS011;69054;50.866;4.636;2023-11-21T10:22:54;127.85;;;25.75;;
79585;SDS011;69054;50.866;4.636;2023-11-21T10:25:21;210.15;;;36.85;;
79585;SDS011;69054;50.866;4.636;2023-11-21T10:27:48;48.22;;;16.95;;
79585;SDS011;69054;50.866;4.636;2023-11-21T10:30:17;91.32;;;22.13;;
79585;SDS011;69054;50.866;4.636;2023-11-21T10:32:42;53.47;;;17.55;;
79585;SDS011;69054;50.866;4.636;2023-11-21T10:35:09;60.60;;;17.98;;
79585;SDS011;69054;50.866;4.636;2023-11-21T10:37:41;78.65;;;23.33;;
79585;SDS011;69054;50.866;4.636;2023-11-21T10:40:11;46.75;;;17.50;;
79585;SDS011;69054;50.866;4.636;2023-11-21T10:42:40;34.25;;;14.73;;
79585;SDS011;69054;50.866;4.636;2023-11-21T10:45:07;40.60;;;15.50;;
79585;SDS011;69054;50.866;4.636;2023-11-21T10:47:39;49.08;;;15.80;;
79585;SDS011;69054;50.866;4.636;2023-11-21T10:50:06;39.15;;;15.10;;
79585;SDS011;69054;50.866;4.636;2023-11-21T10:52:36;33.95;;;14.60;;
79585;SDS011;69054;50.866;4.636;2023-11-21T10:55:15;40.80;;;16.83;;
79585;SDS011;69054;50.866;4.636;2023-11-21T10:57:42;36.33;;;14.30;;
79585;SDS011;69054;50.866;4.636;2023-11-21T11:00:08;37.42;;;14.55;;
79585;SDS011;69054;50.866;4.636;2023-11-21T11:02:38;32.40;;;13.95;;
79585;SDS011;69054;50.866;4.636;2023-11-21T11:05:04;35.05;;;14.63;;
79585;SDS011;69054;50.866;4.636;2023-11-21T11:07:31;132.50;;;25.35;;
79585;SDS011;69054;50.866;4.636;2023-11-21T11:10:00;37.03;;;15.75;;
79585;SDS011;69054;50.866;4.636;2023-11-21T11:12:25;30.45;;;12.52;;
79585;SDS011;69054;50.866;4.636;2023-11-21T11:14:51;29.80;;;12.98;;
79585;SDS011;69054;50.866;4.636;2023-11-21T11:17:18;29.05;;;13.38;;
79585;SDS011;69054;50.866;4.636;2023-11-21T11:19:45;33.50;;;13.75;;
79585;SDS011;69054;50.866;4.636;2023-11-21T11:22:35;35.22;;;13.90;;
79585;SDS011;69054;50.866;4.636;2023-11-21T11:25:12;33.03;;;13.15;;
79585;SDS011;69054;50.866;4.636;2023-11-21T11:28:00;31.98;;;13.27;;
79585;SDS011;69054;50.866;4.636;2023-11-21T11:30:41;31.55;;;12.70;;
79585;SDS011;69054;50.866;4.636;2023-11-21T11:33:39;36.53;;;12.50;;
79585;SDS011;69054;50.866;4.636;2023-11-21T11:36:29;31.17;;;12.85;;
79585;SDS011;69054;50.866;4.636;2023-11-21T11:39:32;35.35;;;12.77;;
79585;SDS011;69054;50.866;4.636;2023-11-21T11:42:05;30.17;;;12.10;;
79585;SDS011;69054;50.866;4.636;2023-11-21T11:47:29;28.60;;;12.27;;
79585;SDS011;69054;50.866;4.636;2023-11-21T11:55:08;31.42;;;13.35;;
79585;SDS011;69054;50.866;4.636;2023-11-21T11:57:35;34.10;;;12.82;;
79585;SDS011;69054;50.866;4.636;2023-11-21T12:02:59;29.85;;;12.60;;
79585;SDS011;69054;50.866;4.636;2023-11-21T12:05:28;30.70;;;14.88;;
79585;SDS011;69054;50.866;4.636;2023-11-21T12:07:59;32.15;;;13.23;;
79585;SDS011;69054;50.866;4.636;2023-11-21T12:10:26;25.92;;;11.38;;
79585;SDS011;69054;50.866;4.636;2023-11-21T12:12:54;30.15;;;13.18;;
79585;SDS011;69054;50.866;4.636;2023-11-21T12:15:22;28.58;;;12.82;;
79585;SDS011;69054;50.866;4.636;2023-11-21T12:17:48;27.52;;;12.23;;
79585;SDS011;69054;50.866;4.636;2023-11-21T12:20:15;27.23;;;11.95;;
79585;SDS011;69054;50.866;4.636;2023-11-21T12:22:44;22.27;;;11.48;;
79585;SDS011;69054;50.866;4.636;2023-11-21T12:25:12;22.00;;;10.30;;
79585;SDS011;69054;50.866;4.636;2023-11-21T12:27:46;20.90;;;11.02;;
79585;SDS011;69054;50.866;4.636;2023-11-21T12:30:14;21.50;;;10.15;;
79585;SDS011;69054;50.866;4.636;2023-11-21T12:32:47;18.00;;;8.88;;
79585;SDS011;69054;50.866;4.636;2023-11-21T12:35:17;17.05;;;8.60;;
79585;SDS011;69054;50.866;4.636;2023-11-21T12:37:44;17.10;;;7.75;;
79585;SDS011;69054;50.866;4.636;2023-11-21T12:40:12;17.02;;;7.40;;
79585;SDS011;69054;50.866;4.636;2023-11-21T12:43:13;371.63;;;54.33;;
79585;SDS011;69054;50.866;4.636;2023-11-21T12:45:32;15.70;;;7.28;;
79585;SDS011;69054;50.866;4.636;2023-11-21T12:50:26;12.95;;;6.22;;
79585;SDS011;69054;50.866;4.636;2023-11-21T12:53:03;9.60;;;4.97;;
79585;SDS011;69054;50.866;4.636;2023-11-21T12:55:31;11.45;;;5.22;;
79585;SDS011;69054;50.866;4.636;2023-11-21T12:58:02;9.45;;;4.38;;
79585;SDS011;69054;50.866;4.636;2023-11-21T13:00:36;8.77;;;4.38;;
79585;SDS011;69054;50.866;4.636;2023-11-21T13:03:09;9.32;;;5.10;;
79585;SDS011;69054;50.866;4.636;2023-11-21T13:05:38;9.07;;;4.70;;
79585;SDS011;69054;50.866;4.636;2023-11-21T13:08:05;9.23;;;5.10;;
79585;SDS011;69054;50.866;4.636;2023-11-21T13:10:33;7.80;;;4.93;;
79585;SDS011;69054;50.866;4.636;2023-11-21T13:13:05;12.13;;;5.43;;
79585;SDS011;69054;50.866;4.636;2023-11-21T13:15:33;10.30;;;5.72;;
79585;SDS011;69054;50.866;4.636;2023-11-21T13:18:02;10.05;;;5.03;;
79585;SDS011;69054;50.866;4.636;2023-11-21T13:20:28;10.80;;;5.45;;
79585;SDS011;69054;50.866;4.636;2023-11-21T13:22:57;11.30;;;5.38;;
79585;SDS011;69054;50.866;4.636;2023-11-21T13:25:27;9.98;;;6.28;;
79585;SDS011;69054;50.866;4.636;2023-11-21T13:27:56;8.25;;;5.03;;
79585;SDS011;69054;50.866;4.636;2023-11-21T13:32:52;8.98;;;5.18;;
79585;SDS011;69054;50.866;4.636;2023-11-21T13:35:22;9.73;;;5.45;;
79585;SDS011;69054;50.866;4.636;2023-11-21T13:37:56;8.68;;;5.10;;
79585;SDS011;69054;50.866;4.636;2023-11-21T13:40:25;8.93;;;5.53;;
79585;SDS011;69054;50.866;4.636;2023-11-21T13:42:54;10.98;;;5.85;;
79585;SDS011;69054;50.866;4.636;2023-11-21T13:45:23;9.43;;;4.65;;
79585;SDS011;69054;50.866;4.636;2023-11-21T13:47:50;7.70;;;5.40;;
79585;SDS011;69054;50.866;4.636;2023-11-21T13:50:17;8.80;;;4.35;;
79585;SDS011;69054;50.866;4.636;2023-11-21T13:52:48;9.35;;;5.22;;
79585;SDS011;69054;50.866;4.636;2023-11-21T13:55:14;9.63;;;5.20;;
79585;SDS011;69054;50.866;4.636;2023-11-21T13:57:40;9.73;;;4.60;;
79585;SDS011;69054;50.866;4.636;2023-11-21T14:00:10;8.80;;;4.32;;
79585;SDS011;69054;50.866;4.636;2023-11-21T14:02:56;6.90;;;4.32;;
79585;SDS011;69054;50.866;4.636;2023-11-21T14:05:25;7.25;;;4.22;;
79585;SDS011;69054;50.866;4.636;2023-11-21T14:07:54;7.50;;;3.53;;
79585;SDS011;69054;50.866;4.636;2023-11-21T14:10:21;7.13;;;3.90;;
79585;SDS011;69054;50.866;4.636;2023-11-21T14:12:49;5.00;;;3.40;;
79585;SDS011;69054;50.866;4.636;2023-11-21T14:15:15;6.95;;;3.60;;
79585;SDS011;69054;50.866;4.636;2023-11-21T14:17:44;6.68;;;3.88;;
79585;SDS011;69054;50.866;4.636;2023-11-21T14:20:09;5.05;;;3.22;;
79585;SDS011;69054;50.866;4.636;2023-11-21T14:22:41;7.30;;;4.13;;
79585;SDS011;69054;50.866;4.636;2023-11-21T14:25:07;6.85;;;3.67;;
79585;SDS011;69054;50.866;4.636;2023-11-21T14:27:32;8.10;;;4.10;;
79585;SDS011;69054;50.866;4.636;2023-11-21T14:29:58;5.43;;;3.20;;
79585;SDS011;69054;50.866;4.636;2023-11-21T14:32:24;7.32;;;3.85;;
79585;SDS011;69054;50.866;4.636;2023-11-21T14:34:51;7.40;;;4.20;;
79585;SDS011;69054;50.866;4.636;2023-11-21T14:37:17;6.88;;;4.03;;
79585;SDS011;69054;50.866;4.636;2023-11-21T14:39:42;10.35;;;5.00;;
79585;SDS011;69054;50.866;4.636;2023-11-21T14:42:14;9.95;;;4.88;;
79585;SDS011;69054;50.866;4.636;2023-11-21T14:44:40;10.68;;;4.85;;